Time;durP1;ratioP1;P1;durP2;ratioP2;P2;SDS_P1;SDS_P2;PMS_P1;PMS_P2;Temp;Humidity;BMP_temperature;BMP_pressure;BME280_temperature;BME280_humidity;BME280_pressure;Samples;Min_cycle;Max_cycle;Signal;HPM_P1;HPM_P2
2022/08/30 00:01:20;;;;;;;4.35;3.33;;;15.70;99.90;;;;;;5037009;28;20044;-78
2022/08/30 00:03:46;;;;;;;5.03;3.22;;;15.70;99.90;;;;;;5037028;28;20166;-79
2022/08/30 00:06:16;;;;;;;3.63;2.88;;;15.70;99.90;;;;;;5054752;28;20108;-79
2022/08/30 00:08:42;;;;;;;7.82;3.65;;;15.70;99.90;;;;;;5037004;28;20041;-79
2022/08/30 00:11:14;;;;;;;6.05;3.30;;;15.70;99.90;;;;;;5019947;28;20103;-78
2022/08/30 00:13:43;;;;;;;7.13;3.88;;;15.70;99.90;;;;;;5036976;28;20492;-79
2022/08/30 00:16:09;;;;;;;4.85;3.35;;;15.60;99.90;;;;;;5036633;28;20044;-79
2022/08/30 00:18:35;;;;;;;6.00;3.20;;;15.60;99.90;;;;;;5036545;28;20051;-79
2022/08/30 00:21:02;;;;;;;5.97;3.17;;;15.70;99.90;;;;;;5036425;28;20410;-79
2022/08/30 00:23:27;;;;;;;4.35;3.58;;;15.60;99.90;;;;;;5054587;28;20037;-78
2022/08/30 00:25:53;;;;;;;4.35;3.30;;;15.60;99.90;;;;;;5019796;28;20044;-78
2022/08/30 00:28:19;;;;;;;6.40;3.72;;;15.60;99.90;;;;;;5036428;28;20123;-79
2022/08/30 00:30:45;;;;;;;5.97;3.65;;;15.60;99.90;;;;;;5054373;28;20036;-79
2022/08/30 00:33:12;;;;;;;6.25;3.28;;;15.60;99.90;;;;;;5036753;28;20037;-79
2022/08/30 00:35:38;;;;;;;7.68;3.28;;;15.60;99.90;;;;;;5036122;28;20503;-78
2022/08/30 00:38:05;;;;;;;9.18;3.63;;;15.50;99.90;;;;;;5036242;28;20045;-78
2022/08/30 00:40:31;;;;;;;5.82;3.25;;;15.60;99.90;;;;;;5036050;28;20041;-79
2022/08/30 00:42:59;;;;;;;6.15;3.28;;;15.50;99.90;;;;;;5053958;28;20099;-79
2022/08/30 00:45:30;;;;;;;8.35;4.72;;;15.50;99.90;;;;;;5036741;28;20037;-79
2022/08/30 00:47:55;;;;;;;8.80;3.85;;;15.50;99.90;;;;;;5020191;28;20043;-79
2022/08/30 00:50:30;;;;;;;4.43;3.40;;;15.50;99.90;;;;;;5036078;28;20041;-79
2022/08/30 00:52:59;;;;;;;6.75;3.55;;;15.50;99.90;;;;;;5035827;28;20079;-79
2022/08/30 00:55:26;;;;;;;6.53;3.35;;;15.50;99.90;;;;;;5033360;28;20072;-78
2022/08/30 00:57:57;;;;;;;7.53;3.17;;;15.50;99.90;;;;;;5032084;28;20396;-78
2022/08/30 01:00:23;;;;;;;8.90;3.53;;;15.50;99.90;;;;;;5032694;28;20042;-79
2022/08/30 01:02:49;;;;;;;4.88;3.28;;;15.50;99.90;;;;;;5033355;28;20299;-80
2022/08/30 01:05:15;;;;;;;5.35;3.47;;;15.50;99.90;;;;;;5018995;28;20045;-79
2022/08/30 01:07:41;;;;;;;7.78;4.05;;;15.50;99.90;;;;;;5053122;28;20080;-78
2022/08/30 01:10:10;;;;;;;7.68;3.78;;;15.50;99.90;;;;;;5035479;28;20479;-78
2022/08/30 01:12:37;;;;;;;4.57;3.92;;;15.50;99.90;;;;;;5018658;28;20044;-79
2022/08/30 01:15:04;;;;;;;4.82;3.55;;;15.50;99.90;;;;;;5018313;28;20543;-77
2022/08/30 01:17:30;;;;;;;7.90;3.13;;;15.40;99.90;;;;;;5034391;28;20514;-78
2022/08/30 01:20:03;;;;;;;9.05;4.10;;;15.40;99.90;;;;;;5034799;28;20036;-77
2022/08/30 01:22:47;;;;;;;5.97;4.00;;;15.40;99.90;;;;;;5033260;28;20036;-78
2022/08/30 01:25:15;;;;;;;5.40;3.20;;;15.40;99.90;;;;;;5034555;28;20052;-77
2022/08/30 01:27:46;;;;;;;5.63;3.78;;;15.40;99.90;;;;;;5018495;28;20051;-77
2022/08/30 01:30:13;;;;;;;6.40;3.78;;;15.40;99.90;;;;;;5034765;28;20126;-77
2022/08/30 01:32:42;;;;;;;8.70;4.15;;;15.30;99.90;;;;;;5042404;28;20097;-77
2022/08/30 01:35:09;;;;;;;7.25;3.85;;;15.30;99.90;;;;;;5051585;28;20029;-76
2022/08/30 01:37:36;;;;;;;6.30;3.60;;;15.20;99.90;;;;;;5050673;28;20063;-78
2022/08/30 01:40:03;;;;;;;6.07;3.55;;;15.20;99.90;;;;;;5013965;28;20567;-78
2022/08/30 01:42:29;;;;;;;8.13;3.53;;;15.20;99.90;;;;;;5035139;28;20060;-77
2022/08/30 01:44:54;;;;;;;7.05;4.25;;;15.30;99.90;;;;;;5014190;28;20064;-77
2022/08/30 01:47:20;;;;;;;5.85;4.13;;;15.20;99.90;;;;;;5034846;28;20041;-77
2022/08/30 01:49:46;;;;;;;7.50;3.95;;;15.20;99.90;;;;;;5034023;28;20033;-77
2022/08/30 01:52:12;;;;;;;4.50;3.63;;;15.10;99.90;;;;;;5033525;28;20365;-77
2022/08/30 01:54:41;;;;;;;6.65;4.05;;;15.10;99.90;;;;;;5015203;28;20045;-77
2022/08/30 01:57:09;;;;;;;5.35;3.30;;;15.00;99.90;;;;;;5033626;28;20098;-77
2022/08/30 01:59:36;;;;;;;8.63;4.10;;;15.10;99.90;;;;;;5031115;28;20072;-77
2022/08/30 02:02:02;;;;;;;7.18;3.90;;;15.10;99.90;;;;;;5029129;28;20041;-77
2022/08/30 02:04:28;;;;;;;6.35;3.80;;;15.00;99.90;;;;;;5031464;28;20534;-77
2022/08/30 02:06:53;;;;;;;7.88;4.00;;;15.00;99.90;;;;;;5033378;28;20132;-77
2022/08/30 02:09:19;;;;;;;6.32;4.28;;;15.10;99.90;;;;;;5033694;28;20047;-77
2022/08/30 02:11:46;;;;;;;10.23;5.07;;;15.00;99.90;;;;;;5033642;28;20076;-77
2022/08/30 02:14:13;;;;;;;7.55;3.83;;;15.00;99.90;;;;;;5032837;28;20070;-77
2022/08/30 02:16:39;;;;;;;6.40;3.75;;;14.90;99.90;;;;;;5050869;28;20123;-77
2022/08/30 02:19:05;;;;;;;6.35;4.07;;;14.90;99.90;;;;;;5033365;28;20045;-77
2022/08/30 02:21:30;;;;;;;7.03;4.00;;;14.90;99.90;;;;;;5033506;28;20048;-77
2022/08/30 02:23:56;;;;;;;13.00;4.50;;;14.80;99.90;;;;;;5015061;28;20037;-77
2022/08/30 02:26:22;;;;;;;9.02;4.22;;;14.80;99.90;;;;;;5033154;28;20453;-77
2022/08/30 02:28:48;;;;;;;7.80;4.75;;;14.80;99.90;;;;;;5017127;28;20041;-78
2022/08/30 02:31:15;;;;;;;6.95;4.45;;;14.70;99.90;;;;;;5033571;28;20066;-77
2022/08/30 02:33:40;;;;;;;5.97;4.00;;;14.80;99.90;;;;;;5031762;28;20491;-77
2022/08/30 02:36:07;;;;;;;7.65;4.78;;;14.70;99.90;;;;;;5016621;28;20041;-77
2022/08/30 02:38:34;;;;;;;6.35;4.00;;;14.80;99.90;;;;;;5017347;28;20515;-77
2022/08/30 02:40:59;;;;;;;6.80;4.15;;;14.80;99.90;;;;;;5048998;28;20033;-77
2022/08/30 02:43:25;;;;;;;11.35;4.93;;;14.80;99.90;;;;;;5013274;28;20446;-77
2022/08/30 02:45:51;;;;;;;6.68;4.60;;;14.80;99.90;;;;;;5032857;28;20041;-77
2022/08/30 02:48:17;;;;;;;10.18;4.88;;;14.80;99.90;;;;;;5017125;28;20051;-77
2022/08/30 02:50:46;;;;;;;10.50;4.25;;;14.80;99.90;;;;;;5031381;28;20041;-77
2022/08/30 02:53:12;;;;;;;6.53;4.72;;;14.80;99.90;;;;;;5012391;28;20034;-78
2022/08/30 02:55:38;;;;;;;5.95;4.22;;;14.80;99.90;;;;;;5016502;28;20076;-77
2022/08/30 02:58:04;;;;;;;9.05;4.65;;;14.70;99.90;;;;;;5033265;28;20064;-77
2022/08/30 03:00:29;;;;;;;9.50;4.63;;;14.70;99.90;;;;;;5050316;28;20124;-78
2022/08/30 03:02:55;;;;;;;8.10;4.32;;;14.70;99.90;;;;;;5029395;28;20056;-77
2022/08/30 03:05:21;;;;;;;7.38;4.90;;;14.70;99.90;;;;;;5037536;28;20041;-79
2022/08/30 03:07:46;;;;;;;7.72;4.72;;;14.60;99.90;;;;;;5037648;28;20041;-79
2022/08/30 03:10:13;;;;;;;9.65;4.82;;;14.60;99.90;;;;;;5037550;28;20079;-79
2022/08/30 03:12:40;;;;;;;7.38;4.47;;;14.60;99.90;;;;;;5037621;28;20037;-79
2022/08/30 03:15:06;;;;;;;12.65;5.22;;;14.50;99.90;;;;;;5037009;28;20045;-78
2022/08/30 03:17:32;;;;;;;8.07;4.68;;;14.50;99.90;;;;;;5020486;28;20052;-78
2022/08/30 03:19:59;;;;;;;7.82;5.07;;;14.40;99.90;;;;;;5037221;28;20422;-78
2022/08/30 03:22:25;;;;;;;8.25;5.10;;;14.40;99.90;;;;;;5037189;28;20067;-78
2022/08/30 03:24:50;;;;;;;7.63;5.10;;;14.40;99.90;;;;;;5036983;28;20044;-79
2022/08/30 03:27:16;;;;;;;11.55;5.38;;;14.30;99.90;;;;;;5037112;28;20167;-77
2022/08/30 03:29:41;;;;;;;5.82;4.53;;;14.30;99.90;;;;;;5036906;28;20407;-77
2022/08/30 03:32:07;;;;;;;7.65;4.50;;;14.30;99.90;;;;;;5019178;28;20037;-77
2022/08/30 03:34:33;;;;;;;7.28;5.22;;;14.30;99.90;;;;;;5020274;28;20072;-77
2022/08/30 03:37:00;;;;;;;9.05;5.13;;;14.30;99.90;;;;;;5036283;28;20037;-77
2022/08/30 03:39:26;;;;;;;8.93;5.63;;;14.20;99.90;;;;;;5035185;28;20052;-77
2022/08/30 03:41:52;;;;;;;9.82;5.47;;;14.20;99.90;;;;;;5036577;28;20033;-77
2022/08/30 03:44:19;;;;;;;7.35;5.43;;;14.20;99.90;;;;;;5035399;28;20055;-77
2022/08/30 03:46:44;;;;;;;8.98;5.50;;;14.10;99.90;;;;;;5054111;28;20048;-77
2022/08/30 03:49:10;;;;;;;10.60;5.30;;;14.10;99.90;;;;;;5054224;28;20033;-77
2022/08/30 03:51:36;;;;;;;9.45;5.78;;;14.00;99.90;;;;;;5019793;28;20052;-77
2022/08/30 03:54:01;;;;;;;10.52;5.53;;;14.00;99.90;;;;;;5053219;28;20041;-77
2022/08/30 03:56:27;;;;;;;11.60;5.35;;;14.00;99.90;;;;;;5035915;28;20036;-77
2022/08/30 03:58:53;;;;;;;6.93;4.70;;;14.00;99.90;;;;;;5019571;28;20033;-77
2022/08/30 04:01:18;;;;;;;9.48;5.03;;;14.00;99.90;;;;;;5036297;28;20047;-77
2022/08/30 04:03:44;;;;;;;9.30;5.43;;;13.90;99.90;;;;;;5034662;28;20411;-77
2022/08/30 04:06:10;;;;;;;8.38;5.55;;;13.90;99.90;;;;;;5035820;28;20036;-77
2022/08/30 04:08:37;;;;;;;10.82;6.40;;;13.90;99.90;;;;;;5035954;28;20049;-77
2022/08/30 04:11:04;;;;;;;9.90;6.18;;;13.80;99.90;;;;;;5034770;28;20087;-77
2022/08/30 04:13:29;;;;;;;9.75;5.53;;;13.80;99.90;;;;;;5032694;28;20033;-77
2022/08/30 04:15:55;;;;;;;8.98;5.78;;;13.80;99.90;;;;;;5034976;28;20094;-77
2022/08/30 04:18:21;;;;;;;10.43;5.93;;;13.80;99.90;;;;;;5036366;28;20045;-79
2022/08/30 04:20:47;;;;;;;8.23;5.72;;;13.80;99.90;;;;;;5036276;28;20032;-79
2022/08/30 04:23:13;;;;;;;10.57;5.78;;;13.80;99.90;;;;;;5036284;28;20384;-78
2022/08/30 04:25:40;;;;;;;8.05;5.68;;;13.70;99.90;;;;;;5035857;28;20495;-79
2022/08/30 04:28:07;;;;;;;12.43;6.28;;;13.70;99.90;;;;;;5019858;28;20033;-79
2022/08/30 04:30:33;;;;;;;9.02;5.85;;;13.60;99.90;;;;;;5036160;28;20519;-79
2022/08/30 04:32:59;;;;;;;8.80;6.45;;;13.70;99.90;;;;;;5035677;28;20495;-79
2022/08/30 04:35:25;;;;;;;8.30;5.78;;;13.60;99.90;;;;;;5035708;28;20086;-79
2022/08/30 04:37:51;;;;;;;9.98;6.32;;;13.60;99.90;;;;;;5036107;28;20113;-79
2022/08/30 04:40:17;;;;;;;10.93;6.65;;;13.60;99.90;;;;;;5019716;28;20041;-78
2022/08/30 04:42:46;;;;;;;9.52;5.97;;;13.60;99.90;;;;;;5035915;28;20491;-79
2022/08/30 04:45:14;;;;;;;8.20;6.30;;;13.60;99.90;;;;;;5035779;28;20048;-78
2022/08/30 04:47:41;;;;;;;9.40;6.05;;;13.60;99.90;;;;;;5053560;28;20137;-78
2022/08/30 04:50:10;;;;;;;9.85;6.63;;;13.50;99.90;;;;;;5036026;28;20080;-78
2022/08/30 04:52:36;;;;;;;7.22;5.28;;;13.50;99.90;;;;;;5035063;28;20503;-78
2022/08/30 04:55:03;;;;;;;9.02;6.13;;;13.50;99.90;;;;;;5035543;28;20076;-79
2022/08/30 04:57:28;;;;;;;10.63;5.68;;;13.50;99.90;;;;;;5035564;28;20044;-79
2022/08/30 04:59:54;;;;;;;9.45;6.03;;;13.50;99.90;;;;;;5019494;28;20067;-78
2022/08/30 05:02:21;;;;;;;12.30;6.50;;;13.50;99.90;;;;;;5034986;28;20041;-77
2022/08/30 05:07:32;;;;;;;8.10;6.22;;;13.50;99.90;;;;;;5035878;28;20068;-77
2022/08/30 05:09:58;;;;;;;11.68;6.20;;;13.50;99.90;;;;;;5031384;28;20056;-78
2022/08/30 05:12:23;;;;;;;13.07;6.68;;;13.50;99.90;;;;;;5034430;28;20484;-78
2022/08/30 05:14:50;;;;;;;12.00;6.05;;;13.60;99.90;;;;;;5034962;28;20403;-77
2022/08/30 05:17:15;;;;;;;9.68;6.55;;;13.60;99.90;;;;;;5035529;28;20124;-78
2022/08/30 05:19:41;;;;;;;11.20;5.82;;;13.50;99.90;;;;;;5014802;28;20102;-78
2022/08/30 05:22:07;;;;;;;10.23;6.30;;;13.50;99.90;;;;;;5018118;28;20368;-77
2022/08/30 05:24:33;;;;;;;9.98;6.15;;;13.70;99.90;;;;;;5032871;28;20041;-77
2022/08/30 05:26:59;;;;;;;9.27;6.13;;;13.70;99.90;;;;;;5051958;28;20029;-77
2022/08/30 05:29:25;;;;;;;10.85;6.32;;;13.70;99.90;;;;;;5043782;28;20506;-77
2022/08/30 05:31:50;;;;;;;12.40;6.43;;;13.70;99.90;;;;;;5044623;28;20045;-77
2022/08/30 05:34:16;;;;;;;9.20;6.25;;;13.70;99.90;;;;;;5061638;28;20036;-78
2022/08/30 05:36:42;;;;;;;10.43;6.85;;;13.70;99.90;;;;;;5052762;28;20033;-78
2022/08/30 05:39:09;;;;;;;10.02;5.95;;;13.80;99.90;;;;;;5035368;28;20068;-78
2022/08/30 05:41:35;;;;;;;10.45;6.78;;;13.80;99.90;;;;;;5048208;28;20415;-77
2022/08/30 05:44:02;;;;;;;10.95;6.50;;;13.80;99.90;;;;;;5035194;28;20051;-77
2022/08/30 05:46:32;;;;;;;12.85;7.05;;;13.80;99.90;;;;;;5033510;28;20041;-78
2022/08/30 05:49:06;;;;;;;11.73;6.47;;;13.80;99.90;;;;;;5150206;27;20430;-76
2022/08/30 05:51:34;;;;;;;10.18;6.97;;;13.80;99.90;;;;;;5130729;27;20526;-76
2022/08/30 05:54:00;;;;;;;9.55;6.35;;;13.80;99.90;;;;;;5132103;27;20045;-76
2022/08/30 05:56:30;;;;;;;8.40;6.45;;;13.90;99.90;;;;;;5121597;28;20069;-76
2022/08/30 05:58:56;;;;;;;9.18;7.00;;;14.00;99.90;;;;;;5122546;27;20046;-76
2022/08/30 06:01:25;;;;;;;9.70;6.13;;;14.10;99.90;;;;;;5126977;27;20039;-77
2022/08/30 06:03:53;;;;;;;11.20;6.35;;;14.10;99.90;;;;;;5127218;27;20431;-78
2022/08/30 06:06:18;;;;;;;10.15;6.45;;;14.10;99.90;;;;;;5110643;28;20481;-78
2022/08/30 06:08:46;;;;;;;8.40;6.35;;;14.20;99.90;;;;;;5128280;28;20031;-78
2022/08/30 06:11:12;;;;;;;8.52;6.22;;;14.30;99.90;;;;;;5129823;27;20401;-78
2022/08/30 06:13:38;;;;;;;12.13;6.50;;;14.30;99.90;;;;;;5128780;28;20043;-78
2022/08/30 06:16:04;;;;;;;13.43;6.88;;;14.40;99.90;;;;;;5111305;28;20043;-78
2022/08/30 06:18:30;;;;;;;14.32;6.82;;;14.40;99.90;;;;;;5129938;27;20046;-78
2022/08/30 06:20:57;;;;;;;9.68;6.32;;;14.40;99.90;;;;;;5128286;28;20084;-78
2022/08/30 06:23:22;;;;;;;8.52;4.95;;;14.40;99.90;;;;;;5128290;28;20118;-78
2022/08/30 06:25:48;;;;;;;9.63;6.20;;;14.40;99.90;;;;;;5129269;27;20154;-78
2022/08/30 06:28:14;;;;;;;8.98;6.18;;;14.50;99.90;;;;;;5111386;28;20473;-78
2022/08/30 06:30:41;;;;;;;8.48;5.90;;;14.50;99.90;;;;;;5129388;27;20035;-78
2022/08/30 06:33:08;;;;;;;13.18;6.03;;;14.60;99.90;;;;;;5128143;28;20082;-78
2022/08/30 06:35:34;;;;;;;9.05;5.22;;;14.60;99.90;;;;;;5128160;27;20043;-78
2022/08/30 06:38:00;;;;;;;9.45;5.72;;;14.70;99.90;;;;;;5128250;28;20508;-78
2022/08/30 06:40:25;;;;;;;11.25;5.47;;;14.80;99.90;;;;;;5128078;28;20500;-78
2022/08/30 06:42:51;;;;;;;7.85;5.25;;;14.90;99.90;;;;;;5128540;28;20035;-78
2022/08/30 06:45:19;;;;;;;10.27;5.82;;;14.90;99.90;;;;;;5128131;28;20132;-78
2022/08/30 06:47:45;;;;;;;8.93;4.78;;;14.90;99.90;;;;;;5128984;27;20039;-79
2022/08/30 06:50:12;;;;;;;7.13;5.25;;;15.00;99.90;;;;;;5110723;28;20047;-78
2022/08/30 06:52:41;;;;;;;7.50;5.13;;;15.10;99.90;;;;;;5127893;28;20039;-78
2022/08/30 06:55:08;;;;;;;7.63;5.40;;;15.10;99.90;;;;;;5110282;28;20035;-78
2022/08/30 06:57:33;;;;;;;8.68;4.80;;;15.20;99.90;;;;;;5127875;27;20370;-78
2022/08/30 06:59:59;;;;;;;6.80;4.13;;;15.30;99.90;;;;;;5116896;28;20123;-78
2022/08/30 07:02:25;;;;;;;7.10;3.55;;;15.40;99.90;;;;;;5115503;28;20043;-79
2022/08/30 07:04:51;;;;;;;7.47;3.83;;;15.60;99.90;;;;;;5113745;28;20046;-79
2022/08/30 07:07:16;;;;;;;6.88;3.35;;;15.70;99.90;;;;;;5148198;27;20108;-79
2022/08/30 07:09:43;;;;;;;8.20;3.63;;;15.90;99.90;;;;;;5114321;28;20071;-79
2022/08/30 07:12:12;;;;;;;4.97;3.30;;;16.10;99.90;;;;;;5110628;28;20523;-77
2022/08/30 07:14:38;;;;;;;7.57;2.55;;;16.50;99.90;;;;;;5093152;28;20070;-77
2022/08/30 07:19:51;;;;;;;4.25;2.00;;;17.50;99.90;;;;;;5051487;28;20494;-77
2022/08/30 07:22:17;;;;;;;2.30;1.90;;;18.00;99.90;;;;;;5127102;27;20091;-78
2022/08/30 07:24:42;;;;;;;3.10;1.83;;;18.80;99.90;;;;;;5095190;28;20031;-75
2022/08/30 07:27:08;;;;;;;5.03;1.80;;;19.40;99.90;;;;;;5127076;27;20044;-77
2022/08/30 07:29:33;;;;;;;3.10;1.85;;;19.80;99.90;;;;;;5112192;28;20088;-76
2022/08/30 07:31:59;;;;;;;2.05;1.70;;;20.20;99.90;;;;;;5095923;28;20142;-78
2022/08/30 07:34:25;;;;;;;2.33;1.33;;;20.50;99.90;;;;;;5112964;28;20084;-77
2022/08/30 07:36:51;;;;;;;4.20;1.60;;;20.80;99.90;;;;;;5095110;28;20467;-78
2022/08/30 07:39:16;;;;;;;7.35;2.15;;;21.10;99.90;;;;;;5112885;28;20075;-78
2022/08/30 07:41:43;;;;;;;1.90;1.60;;;21.20;99.90;;;;;;5095310;28;20071;-77
2022/08/30 07:44:09;;;;;;;3.00;1.25;;;21.30;99.90;;;;;;5110923;28;20512;-78
2022/08/30 07:46:37;;;;;;;1.83;1.33;;;21.20;99.90;;;;;;5093434;28;20051;-79
2022/08/30 07:49:03;;;;;;;3.78;1.60;;;21.40;99.90;;;;;;5111981;28;20048;-79
2022/08/30 07:51:28;;;;;;;3.80;1.42;;;21.50;99.90;;;;;;5095830;28;20100;-79
2022/08/30 07:53:55;;;;;;;2.22;0.95;;;21.70;99.90;;;;;;5094824;28;20528;-79
2022/08/30 07:56:21;;;;;;;3.75;1.35;;;21.90;99.90;;;;;;5112109;28;20043;-79
2022/08/30 07:58:47;;;;;;;4.43;1.20;;;22.20;99.90;;;;;;5113668;28;20035;-79
2022/08/30 08:01:14;;;;;;;1.38;0.90;;;22.60;99.90;;;;;;5113140;28;20101;-79
2022/08/30 08:03:42;;;;;;;2.58;1.10;;;22.90;99.90;;;;;;5112765;28;20035;-78
2022/08/30 08:06:09;;;;;;;4.30;1.05;;;23.00;99.90;;;;;;5111977;28;20032;-80
2022/08/30 08:08:36;;;;;;;2.53;0.95;;;23.10;99.90;;;;;;5095200;28;20039;-78
2022/08/30 08:11:24;;;;;;;3.30;1.08;;;23.10;99.90;;;;;;5110256;28;20040;-76
2022/08/30 08:13:51;;;;;;;3.53;1.05;;;23.00;99.90;;;;;;5093045;28;20045;-77
2022/08/30 08:16:17;;;;;;;1.55;1.00;;;23.30;99.90;;;;;;5111566;28;20043;-76
2022/08/30 08:18:43;;;;;;;3.38;1.08;;;23.40;99.90;;;;;;5111485;28;20079;-76
2022/08/30 08:21:08;;;;;;;4.13;2.85;;;23.60;99.90;;;;;;5108690;28;20093;-77
2022/08/30 08:23:34;;;;;;;1.67;0.90;;;23.80;99.90;;;;;;5109265;28;20043;-76
2022/08/30 08:26:00;;;;;;;5.28;1.17;;;23.80;99.90;;;;;;5111318;28;20047;-76
2022/08/30 08:28:26;;;;;;;1.98;1.10;;;23.90;99.90;;;;;;5111738;28;20043;-78
2022/08/30 08:30:52;;;;;;;3.13;1.15;;;23.70;99.90;;;;;;5110304;28;20031;-79
2022/08/30 08:33:18;;;;;;;4.30;1.13;;;23.70;99.90;;;;;;5094103;28;20448;-79
2022/08/30 08:35:45;;;;;;;1.33;0.90;;;23.60;99.90;;;;;;5093872;28;20098;-79
2022/08/30 08:38:10;;;;;;;2.50;0.90;;;23.60;99.90;;;;;;5094654;28;20096;-78
2022/08/30 08:41:04;;;;;;;1.55;0.88;;;23.60;99.90;;;;;;5094826;28;20420;-78
2022/08/30 08:43:33;;;;;;;6.82;4.60;;;23.70;99.90;;;;;;5091555;28;20036;-78
2022/08/30 08:46:20;;;;;;;3.78;1.40;;;23.80;99.90;;;;;;5112175;28;20039;-77
2022/08/30 08:48:52;;;;;;;2.88;1.30;;;24.00;99.30;;;;;;5112090;28;20122;-77
2022/08/30 08:54:13;;;;;;;5.65;1.40;;;24.00;99.90;;;;;;5104747;28;20401;-78
2022/08/30 08:56:38;;;;;;;2.28;1.13;;;24.20;99.90;;;;;;5093781;28;20482;-77
2022/08/30 08:59:06;;;;;;;3.55;1.20;;;24.30;99.80;;;;;;5092984;28;20046;-78
2022/08/30 09:01:33;;;;;;;2.97;1.20;;;24.20;99.00;;;;;;5094180;28;20071;-79
2022/08/30 09:04:04;;;;;;;4.47;1.20;;;24.20;99.00;;;;;;5094593;28;20062;-78
2022/08/30 09:06:48;;;;;;;3.60;1.17;;;24.30;97.80;;;;;;5110700;28;20489;-78
2022/08/30 09:09:17;;;;;;;3.88;1.35;;;24.40;96.20;;;;;;5109827;28;20097;-78
2022/08/30 09:11:42;;;;;;;2.10;1.20;;;24.50;97.40;;;;;;5109194;28;20042;-77
2022/08/30 09:14:18;;;;;;;1.95;1.00;;;24.50;98.20;;;;;;5111179;28;20110;-78
2022/08/30 09:17:08;;;;;;;2.40;1.00;;;24.40;96.10;;;;;;5110915;28;20039;-78
2022/08/30 09:19:51;;;;;;;3.00;0.95;;;24.30;93.30;;;;;;5112004;28;20043;-79
2022/08/30 09:22:42;;;;;;;3.08;1.20;;;24.20;95.50;;;;;;5091904;28;20047;-78
2022/08/30 09:25:17;;;;;;;2.55;0.88;;;24.40;94.30;;;;;;5098609;28;20043;-78
2022/08/30 09:27:46;;;;;;;2.13;0.98;;;24.20;94.80;;;;;;5093983;28;20046;-77
2022/08/30 09:30:25;;;;;;;2.17;1.08;;;24.30;95.10;;;;;;5111451;28;20394;-78
2022/08/30 09:32:54;;;;;;;2.33;1.42;;;24.40;94.40;;;;;;5110403;28;20106;-78
2022/08/30 09:35:48;;;;;;;2.42;1.10;;;24.30;94.40;;;;;;5093741;28;20064;-80
2022/08/30 09:38:25;;;;;;;1.77;1.55;;;24.30;80.10;;;;;;5097385;28;20056;-77
2022/08/30 09:40:53;;;;;;;2.33;0.80;;;24.30;90.70;;;;;;5107243;28;20051;-78
2022/08/30 09:43:26;;;;;;;1.63;0.93;;;24.50;92.20;;;;;;5109437;28;20035;-78
2022/08/30 09:46:01;;;;;;;0.82;0.68;;;24.70;90.00;;;;;;5120010;27;20047;-78
2022/08/30 09:48:46;;;;;;;3.65;0.80;;;24.60;78.50;;;;;;5110542;28;20046;-78
2022/08/30 09:51:12;;;;;;;2.92;0.82;;;24.60;82.90;;;;;;5124612;28;20054;-76
2022/08/30 09:54:11;;;;;;;2.42;1.05;;;24.80;85.90;;;;;;5112023;28;20043;-77
2022/08/30 09:57:10;;;;;;;2.97;1.00;;;24.70;72.00;;;;;;5129202;27;20055;-78
2022/08/30 09:59:52;;;;;;;1.63;0.77;;;24.60;66.80;;;;;;5110596;28;20040;-77
2022/08/30 10:02:36;;;;;;;2.45;0.90;;;24.40;76.90;;;;;;5111557;28;20067;-81
2022/08/30 10:05:26;;;;;;;75.28;51.80;;;24.40;78.40;;;;;;5106612;28;20102;-78
2022/08/30 10:08:16;;;;;;;2.65;1.05;;;24.70;74.10;;;;;;5090452;28;20489;-83
2022/08/30 10:10:54;;;;;;;1.77;0.98;;;24.90;77.40;;;;;;5095012;28;20126;-81
2022/08/30 10:13:28;;;;;;;1.83;1.00;;;25.00;76.70;;;;;;5111931;28;20047;-82
2022/08/30 10:16:00;;;;;;;1.73;0.85;;;25.00;69.20;;;;;;5108153;28;20047;-81
2022/08/30 10:18:44;;;;;;;2.10;0.90;;;25.00;67.80;;;;;;5112350;28;20093;-80
2022/08/30 10:21:19;;;;;;;1.02;0.82;;;24.90;64.30;;;;;;5112875;28;20186;-80
2022/08/30 10:23:50;;;;;;;1.77;1.00;;;24.60;70.30;;;;;;5111269;28;20039;-84
2022/08/30 10:26:31;;;;;;;1.35;0.90;;;24.20;74.10;;;;;;5093208;28;20035;-83
2022/08/30 10:29:11;;;;;;;0.75;0.70;;;24.10;70.60;;;;;;5098766;28;20044;-85
2022/08/30 10:31:59;;;;;;;8.65;1.10;;;23.70;76.00;;;;;;5116002;28;20052;-84
2022/08/30 10:34:40;;;;;;;1.00;0.70;;;23.60;81.80;;;;;;5108396;28;20039;-85
2022/08/30 10:37:12;;;;;;;4.13;0.90;;;23.50;83.10;;;;;;5113725;28;20043;-84
2022/08/30 10:39:46;;;;;;;4.55;1.10;;;23.50;82.20;;;;;;5114330;28;20039;-84
2022/08/30 10:42:24;;;;;;;5.43;0.98;;;23.50;75.20;;;;;;5113930;28;20040;-85
2022/08/30 10:45:09;;;;;;;2.67;0.85;;;23.50;81.50;;;;;;5113571;28;20047;-85
2022/08/30 10:47:40;;;;;;;3.58;1.10;;;23.30;75.80;;;;;;5096524;28;20371;-86
2022/08/30 10:50:16;;;;;;;2.85;1.20;;;23.30;79.70;;;;;;5111751;28;20065;-82
2022/08/30 10:52:49;;;;;;;2.97;1.20;;;23.50;80.20;;;;;;5110824;28;20024;-83
2022/08/30 10:55:27;;;;;;;2.60;1.05;;;23.50;76.70;;;;;;5113702;28;20048;-80
2022/08/30 10:58:02;;;;;;;1.73;0.70;;;23.40;74.50;;;;;;5112704;28;20256;-73
2022/08/30 11:00:52;;;;;;;2.33;1.00;;;23.50;75.20;;;;;;5113131;28;20050;-74
2022/08/30 11:03:36;;;;;;;2.50;0.90;;;23.50;75.90;;;;;;5113621;28;20482;-74
2022/08/30 11:06:05;;;;;;;2.33;0.80;;;23.80;71.20;;;;;;5091063;28;20043;-74
2022/08/30 11:08:52;;;;;;;2.72;1.00;;;23.90;73.30;;;;;;5113044;28;20039;-73
2022/08/30 11:11:43;;;;;;;1.95;0.80;;;24.00;68.10;;;;;;5112989;28;20039;-74
2022/08/30 11:14:13;;;;;;;4.07;0.88;;;23.90;72.50;;;;;;5113246;28;20114;-74
2022/08/30 11:16:47;;;;;;;2.08;0.80;;;23.90;71.40;;;;;;5111121;28;20508;-73
2022/08/30 11:19:25;;;;;;;1.55;0.90;;;23.80;67.70;;;;;;5144535;27;20031;-76
2022/08/30 11:21:51;;;;;;;4.05;1.30;;;23.60;68.00;;;;;;5110187;28;20040;-75
2022/08/30 11:24:20;;;;;;;1.25;0.93;;;23.60;71.30;;;;;;5129320;27;20051;-75
2022/08/30 11:26:49;;;;;;;2.75;0.90;;;23.70;67.20;;;;;;5135865;27;20035;-74
2022/08/30 11:29:43;;;;;;;2.17;0.80;;;23.60;70.70;;;;;;5113994;27;20134;-75
2022/08/30 11:32:12;;;;;;;2.03;0.85;;;23.80;68.60;;;;;;5111273;28;20218;-76
2022/08/30 11:34:44;;;;;;;1.10;0.70;;;23.80;67.70;;;;;;5111642;28;20063;-76
2022/08/30 11:37:29;;;;;;;;;;;23.80;63.10;;;;;;5111431;28;20035;-75
2022/08/30 11:40:09;;;;;;;2.80;0.68;;;23.80;61.80;;;;;;5111531;28;19961;-74
2022/08/30 11:42:38;;;;;;;1.38;0.70;;;23.80;61.90;;;;;;5111756;28;20040;-74
2022/08/30 11:45:22;;;;;;;0.98;0.80;;;23.90;65.30;;;;;;5113222;28;20069;-75
2022/08/30 11:47:49;;;;;;;3.53;0.75;;;24.00;63.10;;;;;;5095677;28;20051;-74
2022/08/30 11:50:26;;;;;;;2.55;0.82;;;24.20;64.60;;;;;;5112737;28;20040;-76
2022/08/30 11:52:57;;;;;;;2.13;0.80;;;24.30;65.10;;;;;;5113055;28;20535;-76
2022/08/30 11:55:41;;;;;;;1.33;0.77;;;24.50;64.60;;;;;;5111740;28;20036;-75
2022/08/30 11:58:39;;;;;;;2.22;0.73;;;24.60;60.00;;;;;;5110392;28;20047;-78
2022/08/30 12:01:31;;;;;;;1.45;0.65;;;24.60;62.20;;;;;;5106594;28;20540;-76
2022/08/30 12:04:15;;;;;;;2.13;0.85;;;24.60;63.00;;;;;;5110889;28;20050;-77
2022/08/30 12:06:40;;;;;;;2.63;0.63;;;24.60;62.50;;;;;;5145235;27;20095;-77
2022/08/30 12:09:09;;;;;;;2.67;1.00;;;24.50;64.10;;;;;;5111578;28;20044;-77
2022/08/30 12:11:35;;;;;;;1.13;0.60;;;24.60;64.70;;;;;;5111889;28;20054;-76
2022/08/30 12:14:03;;;;;;;2.00;1.20;;;24.60;63.90;;;;;;5109259;28;20489;-78
2022/08/30 12:19:31;;;;;;;2.53;0.88;;;24.80;64.90;;;;;;5110356;28;20058;-74
2022/08/30 12:22:04;;;;;;;1.35;0.80;;;24.80;62.00;;;;;;5111624;28;20348;-75
2022/08/30 12:24:39;;;;;;;1.40;0.70;;;24.90;61.80;;;;;;5112832;28;20115;-74
2022/08/30 12:27:40;;;;;;;2.95;0.95;;;25.00;60.00;;;;;;5110850;28;20078;-73
2022/08/30 12:30:08;;;;;;;2.30;0.60;;;25.00;60.60;;;;;;5013085;28;20261;-73
2022/08/30 12:32:44;;;;;;;1.33;0.80;;;25.00;63.30;;;;;;5091809;28;20130;-75
2022/08/30 12:35:18;;;;;;;2.83;0.88;;;25.00;58.50;;;;;;5110785;28;20040;-78
2022/08/30 12:37:55;;;;;;;1.85;0.70;;;24.80;59.00;;;;;;5110741;28;20421;-77
2022/08/30 12:40:23;;;;;;;4.03;0.85;;;24.70;61.00;;;;;;5111852;28;20054;-78
2022/08/30 12:42:59;;;;;;;2.65;0.70;;;24.70;61.00;;;;;;5110851;28;20043;-77
2022/08/30 12:45:30;;;;;;;2.25;0.82;;;24.70;60.50;;;;;;5111327;28;20118;-77
2022/08/30 12:48:01;;;;;;;4.82;1.10;;;24.80;62.50;;;;;;5108057;28;20082;-77
2022/08/30 12:50:32;;;;;;;;;;;24.90;63.30;;;;;;5105292;28;20044;-75
2022/08/30 12:53:06;;;;;;;1.83;0.68;;;24.90;59.80;;;;;;5104558;28;19919;-76
2022/08/30 12:55:49;;;;;;;1.02;0.73;;;24.90;58.40;;;;;;5107639;28;20359;-76
2022/08/30 12:58:14;;;;;;;2.58;0.70;;;25.00;63.30;;;;;;5110669;28;20043;-75
2022/08/30 13:00:43;;;;;;;1.13;0.80;;;24.90;61.80;;;;;;5094067;28;20046;-76
2022/08/30 13:03:38;;;;;;;0.80;0.40;;;24.80;61.90;;;;;;5112312;28;20039;-75
2022/08/30 13:06:08;;;;;;;0.90;0.70;;;24.80;61.60;;;;;;5093597;28;20043;-76
2022/08/30 13:08:54;;;;;;;3.20;1.20;;;24.70;62.40;;;;;;5112057;28;20054;-77
2022/08/30 13:11:20;;;;;;;3.38;1.00;;;24.60;63.60;;;;;;5110116;28;20778;-79